Time;durP1;ratioP1;P1;durP2;ratioP2;P2;SDS_P1;SDS_P2;PMS_P1;PMS_P2;Temp;Humidity;BMP_temperature;BMP_pressure;BME280_temperature;BME280_humidity;BME280_pressure;Samples;Min_cycle;Max_cycle;Signal;HPM_P1;HPM_P2
2021/09/03 00:01:46;;;;;;;47.45;23.85;;;11.70;99.90;;;;;;4211006;28;20044;-73
2021/09/03 00:03:46;;;;;;;49.45;25.10;;;11.70;99.90;;;;;;4208574;28;20456;-74
2021/09/03 00:05:47;;;;;;;47.78;25.33;;;11.70;99.90;;;;;;4211708;28;20055;-74
2021/09/03 00:07:48;;;;;;;50.40;25.67;;;11.70;99.90;;;;;;4214259;28;20054;-74
2021/09/03 00:09:49;;;;;;;54.92;25.38;;;11.70;99.90;;;;;;4212007;28;20040;-74
2021/09/03 00:11:49;;;;;;;59.13;26.85;;;11.70;99.90;;;;;;4205334;28;20047;-73
2021/09/03 00:13:50;;;;;;;52.17;26.77;;;11.60;99.90;;;;;;4212750;28;20032;-75
2021/09/03 00:15:51;;;;;;;52.38;24.02;;;11.70;99.90;;;;;;4215004;28;20028;-74
2021/09/03 00:17:51;;;;;;;56.55;26.77;;;11.60;99.90;;;;;;4195255;28;20469;-73
2021/09/03 00:19:52;;;;;;;54.30;23.77;;;11.60;99.90;;;;;;4206658;28;20108;-73
2021/09/03 00:21:53;;;;;;;55.78;27.98;;;11.60;99.90;;;;;;4199456;28;20466;-75
2021/09/03 00:23:53;;;;;;;58.17;25.98;;;11.60;99.90;;;;;;4213896;28;20051;-72
2021/09/03 00:25:54;;;;;;;51.80;24.85;;;11.60;99.90;;;;;;4212517;28;20036;-74
2021/09/03 00:27:54;;;;;;;52.08;25.27;;;11.60;99.90;;;;;;4196087;28;20078;-73
2021/09/03 00:29:55;;;;;;;54.78;26.27;;;11.60;99.90;;;;;;4212030;28;20455;-73
2021/09/03 00:31:56;;;;;;;58.42;27.13;;;11.50;99.90;;;;;;4203753;28;20059;-74
2021/09/03 00:33:57;;;;;;;56.20;25.67;;;11.50;99.90;;;;;;4212324;28;20051;-74
2021/09/03 00:35:57;;;;;;;62.05;24.75;;;11.50;99.90;;;;;;4215037;28;20119;-74
2021/09/03 00:37:58;;;;;;;56.97;26.35;;;11.50;99.90;;;;;;4211341;28;20058;-73
2021/09/03 00:39:58;;;;;;;60.33;25.10;;;11.40;99.90;;;;;;4184486;28;20365;-73
2021/09/03 00:41:59;;;;;;;56.58;26.15;;;11.40;99.90;;;;;;4209945;28;20035;-73
2021/09/03 00:44:00;;;;;;;50.50;27.27;;;11.40;99.90;;;;;;4212680;28;20031;-74
2021/09/03 00:46:00;;;;;;;60.22;25.45;;;11.40;99.90;;;;;;4211459;28;20058;-73
2021/09/03 00:48:01;;;;;;;57.60;25.52;;;11.40;99.90;;;;;;4205361;28;20042;-74
2021/09/03 00:50:03;;;;;;;58.30;27.13;;;11.40;99.90;;;;;;4196863;28;20036;-74
2021/09/03 00:52:06;;;;;;;57.13;28.08;;;11.40;99.90;;;;;;4190259;28;20083;-73
2021/09/03 00:54:07;;;;;;;67.65;27.85;;;11.40;99.90;;;;;;4194866;28;20036;-74
2021/09/03 00:56:08;;;;;;;63.22;28.02;;;11.40;99.90;;;;;;4195750;28;20492;-73
2021/09/03 00:58:08;;;;;;;57.78;28.38;;;11.40;99.90;;;;;;4211723;28;20059;-73
2021/09/03 01:00:09;;;;;;;58.30;25.40;;;11.40;99.90;;;;;;4212372;28;20131;-73
2021/09/03 01:02:10;;;;;;;61.53;28.50;;;11.40;99.90;;;;;;4192532;28;20047;-73
2021/09/03 01:04:10;;;;;;;61.35;27.55;;;11.40;99.90;;;;;;4213143;28;20039;-73
2021/09/03 01:06:12;;;;;;;68.47;29.13;;;11.40;99.90;;;;;;4211352;28;20399;-74
2021/09/03 01:08:13;;;;;;;61.40;26.50;;;11.40;99.90;;;;;;4213883;28;20028;-74
2021/09/03 01:10:16;;;;;;;64.40;27.50;;;11.30;99.90;;;;;;4209923;28;20028;-73
2021/09/03 01:12:17;;;;;;;61.83;26.38;;;11.30;99.90;;;;;;4203153;28;20073;-74
2021/09/03 01:14:19;;;;;;;69.00;28.83;;;11.30;99.90;;;;;;4195230;28;20050;-74
2021/09/03 01:16:19;;;;;;;56.95;27.15;;;11.40;99.90;;;;;;4208579;28;20052;-73
2021/09/03 01:18:20;;;;;;;63.17;29.00;;;11.40;99.90;;;;;;4193376;28;20101;-73
2021/09/03 01:20:21;;;;;;;60.70;27.27;;;11.40;99.90;;;;;;4205171;28;20453;-73
2021/09/03 01:22:22;;;;;;;57.97;27.92;;;11.40;99.90;;;;;;4211207;28;20036;-74
2021/09/03 01:24:23;;;;;;;63.53;28.33;;;11.30;99.90;;;;;;4190309;28;20033;-73
2021/09/03 01:26:25;;;;;;;66.95;30.10;;;11.30;99.90;;;;;;4210931;28;20043;-73
2021/09/03 01:28:26;;;;;;;68.47;28.65;;;11.40;99.90;;;;;;4211803;28;20479;-73
2021/09/03 01:30:27;;;;;;;67.00;28.08;;;11.40;99.90;;;;;;4211388;28;20042;-73
2021/09/03 01:32:27;;;;;;;61.95;28.00;;;11.40;99.90;;;;;;4190173;28;20472;-73
2021/09/03 01:34:28;;;;;;;63.72;28.70;;;11.30;99.90;;;;;;4210506;28;20039;-73
2021/09/03 01:36:30;;;;;;;72.93;30.40;;;11.30;99.90;;;;;;4211580;28;20110;-73
2021/09/03 01:38:31;;;;;;;70.65;30.75;;;11.30;99.90;;;;;;4210342;28;20032;-73
2021/09/03 01:40:32;;;;;;;75.72;29.45;;;11.30;99.90;;;;;;4201360;28;20108;-73
2021/09/03 01:42:33;;;;;;;61.13;29.90;;;11.30;99.90;;;;;;4210554;28;20438;-73
2021/09/03 01:44:34;;;;;;;67.40;28.13;;;11.20;99.90;;;;;;4209291;28;20061;-73
2021/09/03 01:46:36;;;;;;;58.83;27.10;;;11.20;99.90;;;;;;4209249;28;20515;-72
2021/09/03 01:48:36;;;;;;;65.72;27.63;;;11.20;99.90;;;;;;4206548;28;20039;-73
2021/09/03 01:50:37;;;;;;;75.13;30.17;;;11.10;99.90;;;;;;4209080;28;20067;-72
2021/09/03 01:52:37;;;;;;;59.47;27.27;;;11.10;99.90;;;;;;4187536;28;20134;-73
2021/09/03 01:54:38;;;;;;;71.80;28.58;;;11.10;99.90;;;;;;4209849;28;20039;-73
2021/09/03 01:56:39;;;;;;;72.43;27.73;;;11.00;99.90;;;;;;4211195;28;20043;-72
2021/09/03 01:58:39;;;;;;;66.35;30.05;;;11.00;99.90;;;;;;4195456;28;20395;-73
2021/09/03 02:00:40;;;;;;;76.35;31.25;;;11.00;99.90;;;;;;4206579;28;20356;-73
2021/09/03 02:02:41;;;;;;;77.15;31.15;;;11.00;99.90;;;;;;4209975;28;20037;-72
2021/09/03 02:04:41;;;;;;;65.68;30.90;;;11.10;99.90;;;;;;4211660;28;20036;-72
2021/09/03 02:06:42;;;;;;;66.63;30.17;;;11.10;99.90;;;;;;4211484;28;20089;-73
2021/09/03 02:08:43;;;;;;;65.32;29.10;;;11.10;99.90;;;;;;4212229;28;20044;-73
2021/09/03 02:10:43;;;;;;;61.72;27.75;;;11.10;99.90;;;;;;4210461;28;20038;-73
2021/09/03 02:12:44;;;;;;;74.18;31.45;;;11.10;99.90;;;;;;4205038;28;20043;-72
2021/09/03 02:14:45;;;;;;;72.13;30.35;;;11.00;99.90;;;;;;4210014;28;20035;-74
2021/09/03 02:16:45;;;;;;;65.15;30.17;;;11.00;99.90;;;;;;4187857;28;20040;-72
2021/09/03 02:18:46;;;;;;;69.32;29.40;;;11.00;99.90;;;;;;4190708;28;20044;-73
2021/09/03 02:20:47;;;;;;;71.68;30.73;;;11.00;99.90;;;;;;4204198;28;20032;-73
2021/09/03 02:22:47;;;;;;;73.45;30.75;;;11.00;99.90;;;;;;4209680;28;20036;-73
2021/09/03 02:24:48;;;;;;;66.32;30.25;;;11.00;99.90;;;;;;4188738;28;20443;-73
2021/09/03 02:26:49;;;;;;;79.88;34.05;;;11.00;99.90;;;;;;4194442;28;20425;-74
2021/09/03 02:28:50;;;;;;;75.45;30.48;;;10.90;99.90;;;;;;4185525;28;20043;-73
2021/09/03 02:30:50;;;;;;;74.15;31.42;;;10.90;99.90;;;;;;4210359;28;20051;-74
2021/09/03 02:32:51;;;;;;;69.10;27.95;;;10.90;99.90;;;;;;4209812;28;20020;-73
2021/09/03 02:34:51;;;;;;;73.47;29.52;;;10.80;99.90;;;;;;4210169;28;20082;-73
2021/09/03 02:36:52;;;;;;;64.28;28.02;;;10.80;99.90;;;;;;4194352;28;20557;-73
2021/09/03 02:38:53;;;;;;;75.45;29.17;;;10.80;99.90;;;;;;4209311;28;20514;-74
2021/09/03 02:40:54;;;;;;;77.95;31.65;;;10.70;99.90;;;;;;4194560;28;20032;-73
2021/09/03 02:42:55;;;;;;;76.60;29.50;;;10.70;99.90;;;;;;4210392;28;20036;-73
2021/09/03 02:44:55;;;;;;;67.65;28.92;;;10.70;99.90;;;;;;4207901;28;20044;-73
2021/09/03 02:46:56;;;;;;;80.75;34.22;;;10.70;99.90;;;;;;4210162;28;20083;-74
2021/09/03 02:48:57;;;;;;;75.53;31.95;;;10.70;99.90;;;;;;4205804;28;20040;-74
2021/09/03 02:50:57;;;;;;;73.60;31.55;;;10.60;99.90;;;;;;4191573;28;20040;-74
2021/09/03 02:52:58;;;;;;;82.40;31.65;;;10.70;99.90;;;;;;4211981;28;20406;-74
2021/09/03 02:54:59;;;;;;;87.40;32.95;;;10.70;99.90;;;;;;4194340;28;20082;-73
2021/09/03 02:57:00;;;;;;;80.25;32.20;;;10.70;99.90;;;;;;4212605;28;20036;-74
2021/09/03 02:59:01;;;;;;;83.13;33.17;;;10.70;99.90;;;;;;4208553;28;20036;-74
2021/09/03 03:01:02;;;;;;;86.72;32.30;;;10.70;99.90;;;;;;4208750;28;20066;-74
2021/09/03 03:03:02;;;;;;;79.30;34.08;;;10.70;99.90;;;;;;4209813;28;20036;-74
2021/09/03 03:05:03;;;;;;;82.60;31.52;;;10.60;99.90;;;;;;4187781;28;20108;-73
2021/09/03 03:07:04;;;;;;;80.03;32.97;;;10.60;99.90;;;;;;4192465;28;20025;-74
2021/09/03 03:09:04;;;;;;;83.20;30.80;;;10.60;99.90;;;;;;4194497;28;20435;-74
2021/09/03 03:11:05;;;;;;;80.50;31.17;;;10.60;99.90;;;;;;4209238;28;20162;-74
2021/09/03 03:13:23;;;;;;;71.43;30.58;;;10.60;99.90;;;;;;4193574;28;20037;-74
2021/09/03 03:15:24;;;;;;;75.53;31.63;;;10.60;99.90;;;;;;4209236;28;20102;-74
2021/09/03 03:17:26;;;;;;;84.53;32.28;;;10.50;99.90;;;;;;4192153;28;20453;-74
2021/09/03 03:19:27;;;;;;;91.13;36.10;;;10.50;99.90;;;;;;4209301;28;20025;-74
2021/09/03 03:21:28;;;;;;;88.97;36.42;;;10.50;99.90;;;;;;4212065;28;20055;-73
2021/09/03 03:23:28;;;;;;;82.03;30.80;;;10.40;99.90;;;;;;4209166;28;20479;-74
2021/09/03 03:25:29;;;;;;;79.32;30.23;;;10.50;99.90;;;;;;4208374;28;20090;-74
2021/09/03 03:27:30;;;;;;;86.47;33.65;;;10.50;99.90;;;;;;4195081;28;20028;-74
2021/09/03 03:29:30;;;;;;;77.38;31.10;;;10.50;99.90;;;;;;4211886;28;20483;-74
2021/09/03 03:31:32;;;;;;;88.20;34.65;;;10.50;99.90;;;;;;4211120;28;20060;-74
2021/09/03 03:33:32;;;;;;;87.53;34.72;;;10.50;99.90;;;;;;4211863;28;20119;-74
2021/09/03 03:35:33;;;;;;;84.55;33.42;;;10.50;99.90;;;;;;4211751;28;20028;-73
2021/09/03 03:37:34;;;;;;;88.53;34.17;;;10.40;99.90;;;;;;4196568;28;20071;-74
2021/09/03 03:39:34;;;;;;;97.57;36.10;;;10.40;99.90;;;;;;4212814;28;20436;-74
2021/09/03 03:41:35;;;;;;;91.57;34.15;;;10.50;99.90;;;;;;4213216;28;20477;-74
2021/09/03 03:43:36;;;;;;;101.07;37.03;;;10.50;99.90;;;;;;4195868;28;20051;-72
2021/09/03 03:45:36;;;;;;;88.70;33.38;;;10.40;99.90;;;;;;4196514;28;20054;-73
2021/09/03 03:47:38;;;;;;;96.90;34.08;;;10.40;99.90;;;;;;4191425;28;20040;-74
2021/09/03 03:49:39;;;;;;;91.85;33.40;;;10.40;99.90;;;;;;4193949;28;20059;-74
2021/09/03 03:51:39;;;;;;;94.05;38.15;;;10.30;99.90;;;;;;4193998;28;20033;-74
2021/09/03 03:53:40;;;;;;;90.35;36.00;;;10.30;99.90;;;;;;4194618;28;20032;-73
2021/09/03 03:55:40;;;;;;;97.15;38.05;;;10.30;99.90;;;;;;4194781;28;20116;-73
2021/09/03 03:57:41;;;;;;;88.30;31.88;;;10.30;99.90;;;;;;4195877;28;20033;-73
2021/09/03 03:59:42;;;;;;;100.45;37.08;;;10.30;99.90;;;;;;4192050;28;20033;-74
2021/09/03 04:01:43;;;;;;;89.55;35.08;;;10.30;99.90;;;;;;4194165;28;20094;-73
2021/09/03 04:03:43;;;;;;;85.32;34.05;;;10.30;99.90;;;;;;4194410;28;20408;-73
2021/09/03 04:05:44;;;;;;;93.72;34.42;;;10.30;99.90;;;;;;4197176;28;20506;-73
2021/09/03 04:07:44;;;;;;;91.60;32.13;;;10.30;99.90;;;;;;4195905;28;20037;-74
2021/09/03 04:09:45;;;;;;;86.20;33.03;;;10.30;99.90;;;;;;4195855;28;20033;-74
2021/09/03 04:11:47;;;;;;;90.07;34.97;;;10.30;99.90;;;;;;4194807;28;20035;-74
2021/09/03 04:13:48;;;;;;;93.25;36.40;;;10.30;99.90;;;;;;4195306;28;20112;-74
2021/09/03 04:15:48;;;;;;;81.30;31.88;;;10.20;99.90;;;;;;4195522;28;20150;-74
2021/09/03 04:17:49;;;;;;;80.63;31.15;;;10.20;99.90;;;;;;4197430;28;20357;-74
2021/09/03 04:19:50;;;;;;;78.35;30.95;;;10.20;99.90;;;;;;4195054;28;20411;-73
2021/09/03 04:21:51;;;;;;;75.95;29.20;;;10.10;99.90;;;;;;4196499;28;20033;-73
2021/09/03 04:23:51;;;;;;;86.18;32.33;;;10.10;99.90;;;;;;4195683;28;20036;-74
2021/09/03 04:25:52;;;;;;;89.35;32.47;;;10.10;99.90;;;;;;4189522;28;20491;-74
2021/09/03 04:27:52;;;;;;;83.15;33.15;;;10.10;99.90;;;;;;4195783;28;20037;-73
2021/09/03 04:29:53;;;;;;;83.75;31.45;;;10.00;99.90;;;;;;4194123;28;20487;-73
2021/09/03 04:31:55;;;;;;;87.75;33.28;;;10.00;99.90;;;;;;4194834;28;20056;-74
2021/09/03 04:33:55;;;;;;;77.55;31.98;;;10.00;99.90;;;;;;4195328;28;20116;-74
2021/09/03 04:35:56;;;;;;;85.60;33.47;;;10.00;99.90;;;;;;4195585;28;20025;-74
2021/09/03 04:37:56;;;;;;;85.13;35.67;;;9.90;99.90;;;;;;4193558;28;20041;-73
2021/09/03 04:39:57;;;;;;;87.28;33.63;;;10.00;99.90;;;;;;4194265;28;20055;-73
2021/09/03 04:41:57;;;;;;;89.18;34.05;;;10.00;99.90;;;;;;4191999;28;20075;-74
2021/09/03 04:43:58;;;;;;;97.00;33.85;;;10.10;99.90;;;;;;4194648;28;20033;-73
2021/09/03 04:45:59;;;;;;;100.28;35.28;;;10.10;99.90;;;;;;4211084;28;20043;-74
2021/09/03 04:47:59;;;;;;;91.97;36.53;;;10.10;99.90;;;;;;4212185;28;20028;-73
2021/09/03 04:50:00;;;;;;;88.50;34.42;;;10.10;99.90;;;;;;4197033;28;20025;-72
2021/09/03 04:52:01;;;;;;;97.03;35.55;;;10.10;99.90;;;;;;4211489;28;20479;-72
2021/09/03 04:54:02;;;;;;;98.63;35.75;;;10.00;99.90;;;;;;4211623;28;20028;-72
2021/09/03 04:56:02;;;;;;;93.97;36.67;;;10.00;99.90;;;;;;4211699;28;20462;-73
2021/09/03 04:58:03;;;;;;;96.30;36.63;;;10.10;99.90;;;;;;4194131;28;20112;-73
2021/09/03 05:00:04;;;;;;;101.03;37.22;;;10.10;99.90;;;;;;4212146;28;20043;-73
2021/09/03 05:02:05;;;;;;;101.78;38.97;;;10.10;99.90;;;;;;4213373;28;20028;-73
2021/09/03 05:04:05;;;;;;;92.70;37.45;;;10.10;99.90;;;;;;4193866;28;20050;-72
2021/09/03 05:06:06;;;;;;;105.05;36.65;;;10.10;99.90;;;;;;4195459;28;20438;-73
2021/09/03 05:08:07;;;;;;;92.65;37.60;;;10.10;99.90;;;;;;4210464;28;20577;-73
2021/09/03 05:10:09;;;;;;;107.50;39.67;;;10.20;99.90;;;;;;4213135;28;20032;-73
2021/09/03 05:12:09;;;;;;;101.07;34.67;;;10.20;99.90;;;;;;4193497;28;20028;-73
2021/09/03 05:14:10;;;;;;;102.13;35.90;;;10.20;99.90;;;;;;4209728;28;20086;-73
2021/09/03 05:16:11;;;;;;;92.78;35.08;;;10.20;99.90;;;;;;4211313;28;20089;-72
2021/09/03 05:18:11;;;;;;;96.22;37.53;;;10.20;99.90;;;;;;4211089;28;20126;-73
2021/09/03 05:20:12;;;;;;;98.38;34.45;;;10.20;99.90;;;;;;4212655;28;20051;-72
2021/09/03 05:22:12;;;;;;;96.55;36.42;;;10.20;99.90;;;;;;4208193;28;20028;-74
2021/09/03 05:24:13;;;;;;;113.38;38.17;;;10.20;99.90;;;;;;4211067;28;20032;-73
2021/09/03 05:26:14;;;;;;;100.18;38.20;;;10.30;99.90;;;;;;4203628;28;20142;-72
2021/09/03 05:28:14;;;;;;;104.75;39.90;;;10.30;99.90;;;;;;4210216;28;20268;-72
2021/09/03 05:30:15;;;;;;;97.93;39.92;;;10.40;99.90;;;;;;4211576;28;20028;-73
2021/09/03 05:32:16;;;;;;;112.93;40.42;;;10.40;99.90;;;;;;4207455;28;20021;-72
2021/09/03 05:34:16;;;;;;;120.97;37.30;;;10.40;99.90;;;;;;4205305;28;20039;-72
2021/09/03 05:36:17;;;;;;;111.95;40.65;;;10.50;99.90;;;;;;4210028;28;20024;-72
2021/09/03 05:38:17;;;;;;;100.82;38.15;;;10.50;99.90;;;;;;4189862;28;20105;-72
2021/09/03 05:40:18;;;;;;;105.47;38.88;;;10.60;99.90;;;;;;4208294;28;20036;-73
2021/09/03 05:42:19;;;;;;;104.78;39.75;;;10.60;99.90;;;;;;4208560;28;20036;-73
2021/09/03 05:44:19;;;;;;;114.55;38.83;;;10.70;99.90;;;;;;4210550;28;20031;-73
2021/09/03 05:46:20;;;;;;;115.55;44.20;;;10.70;99.90;;;;;;4211967;28;21555;-73
2021/09/03 05:48:20;;;;;;;109.38;39.10;;;10.70;99.90;;;;;;4210493;28;20044;-73
2021/09/03 05:50:21;;;;;;;105.55;41.78;;;10.80;99.90;;;;;;4193218;28;20044;-73
2021/09/03 05:52:22;;;;;;;116.30;42.13;;;10.90;99.90;;;;;;4205502;28;20064;-73
2021/09/03 05:54:23;;;;;;;105.88;41.90;;;10.90;99.90;;;;;;4190930;28;20035;-73
2021/09/03 05:56:23;;;;;;;112.30;41.97;;;11.00;99.90;;;;;;4210216;28;20115;-73
2021/09/03 05:58:24;;;;;;;109.90;41.42;;;11.00;99.90;;;;;;4210706;28;20040;-73
2021/09/03 06:00:25;;;;;;;112.85;44.70;;;11.00;99.90;;;;;;4190014;28;20142;-73
2021/09/03 06:02:26;;;;;;;102.95;39.92;;;11.10;99.90;;;;;;4207813;28;20479;-73
2021/09/03 06:04:27;;;;;;;117.28;42.22;;;11.10;99.90;;;;;;4208783;28;20036;-73
2021/09/03 06:06:28;;;;;;;109.72;41.75;;;11.10;99.90;;;;;;4210118;28;20141;-73
2021/09/03 06:08:28;;;;;;;105.28;40.42;;;11.20;99.90;;;;;;4203167;28;20116;-73
2021/09/03 06:10:29;;;;;;;101.10;40.55;;;11.30;99.90;;;;;;4200787;28;20406;-73
2021/09/03 06:12:29;;;;;;;101.70;39.75;;;11.30;99.90;;;;;;4205254;28;20062;-73
2021/09/03 06:14:30;;;;;;;108.80;41.97;;;11.40;99.90;;;;;;4199623;28;20054;-73
2021/09/03 06:16:31;;;;;;;114.63;45.05;;;11.40;99.90;;;;;;4203568;28;20035;-72
2021/09/03 06:18:31;;;;;;;110.28;43.65;;;11.50;99.90;;;;;;4201810;28;20042;-72
2021/09/03 06:20:32;;;;;;;117.82;46.85;;;11.60;99.90;;;;;;4191672;28;20106;-72
2021/09/03 06:22:33;;;;;;;112.03;46.13;;;11.60;99.90;;;;;;4211650;28;20051;-72
2021/09/03 06:24:35;;;;;;;107.95;43.33;;;11.70;99.90;;;;;;4193355;28;20059;-72
2021/09/03 06:26:35;;;;;;;111.60;47.30;;;11.80;99.90;;;;;;4211865;28;20127;-73
2021/09/03 06:28:36;;;;;;;109.95;46.42;;;11.80;99.90;;;;;;4191748;28;20086;-73
2021/09/03 06:30:37;;;;;;;113.38;46.75;;;11.90;99.90;;;;;;4191629;28;20495;-72
2021/09/03 06:32:38;;;;;;;110.57;46.55;;;11.90;99.90;;;;;;4209260;28;20042;-73
2021/09/03 06:34:41;;;;;;;110.28;43.63;;;12.00;99.90;;;;;;4210899;28;20374;-73
2021/09/03 06:36:42;;;;;;;112.45;45.75;;;12.10;99.90;;;;;;4209720;28;20039;-72
2021/09/03 06:38:42;;;;;;;114.90;46.90;;;12.10;99.90;;;;;;4211008;28;20032;-72
2021/09/03 06:40:43;;;;;;;111.10;46.15;;;12.20;99.90;;;;;;4209803;28;20043;-72
2021/09/03 06:42:43;;;;;;;120.55;46.85;;;12.20;99.90;;;;;;4192731;28;20431;-72
2021/09/03 06:44:44;;;;;;;111.30;46.92;;;12.30;99.90;;;;;;4193581;28;20516;-73
2021/09/03 06:46:45;;;;;;;111.43;45.13;;;12.30;99.90;;;;;;4210508;28;20109;-72
2021/09/03 06:48:45;;;;;;;104.43;45.65;;;12.40;99.90;;;;;;4193181;28;20039;-72
2021/09/03 06:50:46;;;;;;;108.20;45.97;;;12.50;99.90;;;;;;4210734;28;20032;-73
2021/09/03 06:52:48;;;;;;;110.35;45.58;;;12.70;99.90;;;;;;4194797;28;20461;-73
2021/09/03 06:54:49;;;;;;;103.15;46.65;;;12.70;99.90;;;;;;4209095;28;20529;-72
2021/09/03 06:56:50;;;;;;;105.15;46.47;;;12.80;99.90;;;;;;4210036;28;20093;-73
2021/09/03 06:58:51;;;;;;;101.18;46.40;;;12.90;99.90;;;;;;4209445;28;20032;-72
2021/09/03 07:00:51;;;;;;;110.63;47.75;;;13.00;99.90;;;;;;4209534;28;20036;-72
2021/09/03 07:02:52;;;;;;;106.40;48.78;;;13.00;99.90;;;;;;4192531;28;20033;-72
2021/09/03 07:04:53;;;;;;;109.57;51.03;;;13.10;99.90;;;;;;4202363;28;20438;-73
2021/09/03 07:06:53;;;;;;;100.90;50.67;;;13.20;99.90;;;;;;4203036;28;20025;-74
2021/09/03 07:08:54;;;;;;;102.78;50.83;;;13.30;99.90;;;;;;4191041;28;20036;-73
2021/09/03 07:10:55;;;;;;;110.07;52.20;;;13.40;99.90;;;;;;4210027;28;20034;-73
2021/09/03 07:12:55;;;;;;;104.32;48.28;;;13.50;99.90;;;;;;4195623;28;20090;-74
2021/09/03 07:14:56;;;;;;;97.82;49.20;;;13.60;99.90;;;;;;4202911;28;20060;-73
2021/09/03 07:16:56;;;;;;;106.97;49.70;;;13.60;99.90;;;;;;4213312;28;20170;-73
2021/09/03 07:18:59;;;;;;;103.25;50.17;;;13.70;99.90;;;;;;4212185;28;20028;-73
2021/09/03 07:21:00;;;;;;;97.43;48.70;;;13.80;99.90;;;;;;4212913;28;20031;-74
2021/09/03 07:23:01;;;;;;;102.22;50.72;;;13.90;99.90;;;;;;4197498;28;20519;-74
2021/09/03 07:25:02;;;;;;;102.90;49.08;;;14.00;99.90;;;;;;4213461;28;20467;-73
2021/09/03 07:27:03;;;;;;;88.05;46.60;;;14.10;99.90;;;;;;4208320;28;20047;-74
2021/09/03 07:29:04;;;;;;;91.05;48.67;;;14.20;99.90;;;;;;4194601;28;20046;-73
2021/09/03 07:31:05;;;;;;;85.25;45.33;;;14.30;99.90;;;;;;4208800;28;20383;-73
2021/09/03 07:33:05;;;;;;;82.72;45.60;;;14.40;99.90;;;;;;4213346;28;20028;-72
2021/09/03 07:35:06;;;;;;;90.63;45.92;;;14.40;99.90;;;;;;4208180;28;20028;-72
2021/09/03 07:37:07;;;;;;;83.63;43.67;;;14.50;99.90;;;;;;4189608;28;20032;-73
2021/09/03 07:39:08;;;;;;;82.55;41.97;;;14.60;99.90;;;;;;4213118;28;20032;-73
2021/09/03 07:41:08;;;;;;;89.80;42.33;;;14.70;99.90;;;;;;4212827;28;20390;-74
2021/09/03 07:43:09;;;;;;;71.43;41.53;;;14.80;99.90;;;;;;4212980;28;20107;-72
2021/09/03 07:45:10;;;;;;;79.03;42.95;;;14.90;99.90;;;;;;4196040;28;20044;-72
2021/09/03 07:47:11;;;;;;;72.03;39.30;;;14.90;99.90;;;;;;4195134;28;20383;-72
2021/09/03 07:49:11;;;;;;;75.38;42.92;;;15.10;99.90;;;;;;4196534;28;20139;-73
2021/09/03 07:51:12;;;;;;;71.97;43.67;;;15.20;99.90;;;;;;4194468;28;20046;-72
2021/09/03 07:53:13;;;;;;;72.93;40.17;;;15.30;99.90;;;;;;4213747;28;20085;-72
2021/09/03 07:55:14;;;;;;;69.28;38.47;;;15.40;99.90;;;;;;4195055;28;20551;-73
2021/09/03 07:57:15;;;;;;;62.92;38.90;;;15.50;99.90;;;;;;4195711;28;20047;-72
2021/09/03 07:59:15;;;;;;;54.97;38.40;;;15.60;99.90;;;;;;4195533;28;20120;-72
2021/09/03 08:01:16;;;;;;;64.22;38.58;;;15.70;99.90;;;;;;4210089;28;20528;-73
2021/09/03 08:03:17;;;;;;;60.60;35.55;;;15.90;99.90;;;;;;4195922;28;20115;-73
2021/09/03 08:05:17;;;;;;;55.25;35.63;;;16.00;99.90;;;;;;4209451;28;20032;-72
2021/09/03 08:07:18;;;;;;;52.65;33.70;;;16.10;99.90;;;;;;4213169;28;20036;-72
2021/09/03 08:09:20;;;;;;;52.95;33.90;;;;;;;;;;4208627;28;20124;-72
2021/09/03 08:11:20;;;;;;;52.58;34.90;;;16.30;99.90;;;;;;4196112;28;21630;-71
2021/09/03 08:13:21;;;;;;;54.88;33.97;;;16.50;99.90;;;;;;4211925;28;20139;-72
2021/09/03 08:15:21;;;;;;;48.40;29.63;;;16.60;99.90;;;;;;4210937;28;20094;-72
2021/09/03 08:17:22;;;;;;;44.92;31.60;;;16.70;99.90;;;;;;4195672;28;20043;-72
2021/09/03 08:19:23;;;;;;;45.40;31.63;;;16.80;99.90;;;;;;4196580;28;20029;-72
2021/09/03 08:21:24;;;;;;;57.47;31.60;;;16.90;99.90;;;;;;4214027;28;20056;-73
2021/09/03 08:23:25;;;;;;;43.38;28.42;;;17.00;99.90;;;;;;4213185;28;20182;-72
2021/09/03 08:25:26;;;;;;;40.95;29.73;;;17.10;99.90;;;;;;4209502;28;20116;-72
2021/09/03 08:27:27;;;;;;;47.08;28.20;;;17.30;99.90;;;;;;4211296;28;20103;-72
2021/09/03 08:29:28;;;;;;;38.95;28.20;;;17.40;99.90;;;;;;4189172;28;20069;-72
2021/09/03 08:31:29;;;;;;;37.58;25.55;;;17.50;99.90;;;;;;4212195;28;20497;-72
2021/09/03 08:33:29;;;;;;;37.65;26.73;;;17.70;99.90;;;;;;4212517;28;20048;-72
2021/09/03 08:35:30;;;;;;;32.95;25.10;;;17.80;99.90;;;;;;4212841;28;20036;-72
2021/09/03 08:37:31;;;;;;;35.65;27.35;;;17.90;99.90;;;;;;4212858;28;20024;-72
2021/09/03 08:39:32;;;;;;;33.72;24.60;;;18.00;99.90;;;;;;4212868;28;20028;-72
2021/09/03 08:41:32;;;;;;;30.85;23.08;;;18.10;99.90;;;;;;4206598;28;20111;-72
2021/09/03 08:43:33;;;;;;;31.30;23.23;;;18.30;99.90;;;;;;4194609;28;20482;-72
2021/09/03 08:45:34;;;;;;;27.80;21.02;;;18.40;99.90;;;;;;4213224;28;20044;-73
2021/09/03 08:47:35;;;;;;;28.23;21.30;;;18.50;99.90;;;;;;4213298;28;20162;-73
2021/09/03 08:49:35;;;;;;;28.08;20.63;;;18.60;99.90;;;;;;4196388;28;20029;-72
2021/09/03 08:51:36;;;;;;;26.67;19.65;;;18.80;99.90;;;;;;4212214;28;20043;-71
2021/09/03 08:53:38;;;;;;;35.65;21.45;;;18.80;99.90;;;;;;4212570;28;20036;-73
2021/09/03 08:55:38;;;;;;;24.33;19.70;;;19.00;99.90;;;;;;4211500;28;20035;-70
2021/09/03 08:57:40;;;;;;;26.83;19.85;;;19.10;99.90;;;;;;4212525;28;20056;-71
2021/09/03 08:59:41;;;;;;;20.98;16.77;;;19.30;99.90;;;;;;4212404;28;20085;-72
2021/09/03 09:01:42;;;;;;;26.05;19.42;;;19.40;99.90;;;;;;4212213;28;20436;-72
2021/09/03 09:03:45;;;;;;;24.63;19.92;;;19.50;99.90;;;;;;4212960;28;20028;-73
2021/09/03 09:05:56;;;;;;;28.65;19.65;;;19.60;99.90;;;;;;4209678;28;20028;-70
2021/09/03 09:08:07;;;;;;;21.35;17.73;;;19.80;99.90;;;;;;4211941;28;20479;-71
2021/09/03 09:10:08;;;;;;;25.27;18.65;;;19.90;99.90;;;;;;4212579;28;20047;-72
2021/09/03 09:12:12;;;;;;;22.50;16.52;;;20.10;99.90;;;;;;4211883;28;20487;-72
2021/09/03 09:14:13;;;;;;;26.20;17.88;;;20.30;99.90;;;;;;4211395;28;20044;-72
2021/09/03 09:16:16;;;;;;;21.70;16.23;;;20.40;99.90;;;;;;4195277;28;20024;-71
2021/09/03 09:18:31;;;;;;;28.33;17.23;;;20.60;99.90;;;;;;4213146;28;20107;-72
2021/09/03 09:20:33;;;;;;;22.48;16.52;;;20.80;99.90;;;;;;4210050;28;20028;-72
2021/09/03 09:22:51;;;;;;;19.67;16.02;;;20.90;99.90;;;;;;4213132;28;20123;-72
2021/09/03 09:24:59;;;;;;;20.00;15.38;;;21.20;99.90;;;;;;4193887;28;20028;-71
2021/09/03 09:27:00;;;;;;;19.67;14.73;;;21.40;99.90;;;;;;4212646;28;20035;-72
2021/09/03 09:29:15;;;;;;;20.60;15.45;;;21.60;99.90;;;;;;4211298;28;20036;-73
2021/09/03 09:31:35;;;;;;;23.95;15.45;;;21.90;99.90;;;;;;4211488;28;20036;-71
2021/09/03 09:33:36;;;;;;;19.80;14.25;;;22.10;99.90;;;;;;4193261;28;20464;-72
2021/09/03 09:35:48;;;;;;;24.77;14.90;;;22.30;99.90;;;;;;4212182;28;20375;-73
2021/09/03 09:37:52;;;;;;;23.42;14.75;;;22.50;99.90;;;;;;4211672;28;20082;-72
2021/09/03 09:39:56;;;;;;;19.67;13.85;;;22.60;99.90;;;;;;4209168;28;20046;-72
2021/09/03 09:42:03;;;;;;;19.58;14.95;;;22.80;99.90;;;;;;4211460;28;20055;-71
2021/09/03 09:44:04;;;;;;;18.33;15.00;;;23.10;99.90;;;;;;4207299;28;20105;-71
2021/09/03 09:46:17;;;;;;;18.98;15.20;;;23.20;99.90;;;;;;4212214;28;20036;-73
2021/09/03 09:48:18;;;;;;;18.60;15.27;;;23.20;99.90;;;;;;4210700;28;20040;-72
2021/09/03 09:50:27;;;;;;;17.02;12.52;;;23.40;99.90;;;;;;4208895;28;20086;-72
2021/09/03 09:52:35;;;;;;;19.58;15.05;;;23.50;99.90;;;;;;4191658;28;20036;-73
2021/09/03 09:54:36;;;;;;;22.40;15.65;;;23.70;99.90;;;;;;4212086;28;20120;-73
2021/09/03 09:56:49;;;;;;;20.33;13.73;;;23.80;99.90;;;;;;4209394;28;20486;-73
2021/09/03 09:58:51;;;;;;;;;;;23.90;99.90;;;;;;4210884;28;20467;-73
2021/09/03 10:00:51;;;;;;;18.85;15.02;;;23.80;99.90;;;;;;4211478;28;19912;-73
2021/09/03 10:02:52;;;;;;;18.67;14.07;;;24.10;99.90;;;;;;4212254;28;20032;-73
2021/09/03 10:04:53;;;;;;;17.02;13.60;;;24.20;99.90;;;;;;4209472;28;20024;-73
2021/09/03 10:06:57;;;;;;;22.27;14.35;;;24.50;99.90;;;;;;4207746;28;20424;-73
2021/09/03 10:08:58;;;;;;;19.42;14.75;;;24.50;99.90;;;;;;4210578;28;20036;-73
2021/09/03 10:10:59;;;;;;;18.88;15.27;;;24.70;99.90;;;;;;4211587;28;20039;-72
2021/09/03 10:13:00;;;;;;;21.90;14.23;;;24.70;99.90;;;;;;4210233;28;20120;-72
2021/09/03 10:15:01;;;;;;;19.48;14.95;;;24.90;99.90;;;;;;4208470;28;20043;-72